Time;durP1;ratioP1;P1;durP2;ratioP2;P2;SDS_P1;SDS_P2;PMS_P1;PMS_P2;Temp;Humidity;BMP_temperature;BMP_pressure;BME280_temperature;BME280_humidity;BME280_pressure;Samples;Min_cycle;Max_cycle;Signal;HPM_P1;HPM_P2
2023/12/31 00:02:04;;;;;;;3.05;2.35;;;16.90;47.70;;;;;;5166987;27;45456;-66
2023/12/31 00:04:33;;;;;;;1.70;1.60;;;16.90;47.70;;;;;;5169287;27;46351;-66
2023/12/31 00:06:59;;;;;;;1.90;1.80;;;16.90;47.80;;;;;;5169233;27;45352;-66
2023/12/31 00:09:26;;;;;;;1.58;1.48;;;16.90;47.80;;;;;;5169455;27;45453;-65
2023/12/31 00:11:52;;;;;;;2.00;1.80;;;16.90;47.80;;;;;;5169453;27;45372;-66
2023/12/31 00:14:19;;;;;;;2.13;1.88;;;16.80;47.80;;;;;;5149824;27;48423;-65
2023/12/31 00:16:46;;;;;;;2.47;1.92;;;16.80;47.80;;;;;;5148202;27;45495;-66
2023/12/31 00:19:12;;;;;;;1.70;1.60;;;16.80;47.80;;;;;;5147866;27;45316;-66
2023/12/31 00:21:43;;;;;;;1.70;1.60;;;16.80;47.80;;;;;;5148207;27;45397;-65
2023/12/31 00:24:10;;;;;;;2.08;1.80;;;16.80;47.90;;;;;;5169096;27;45324;-65
2023/12/31 00:26:37;;;;;;;2.15;1.95;;;16.70;47.90;;;;;;5169106;27;45288;-65
2023/12/31 00:29:04;;;;;;;1.92;1.52;;;16.70;47.90;;;;;;5169033;27;45263;-65
2023/12/31 00:31:30;;;;;;;2.03;1.77;;;16.70;48.50;;;;;;5169222;27;45271;-65
2023/12/31 00:33:58;;;;;;;1.70;1.60;;;16.70;47.90;;;;;;5168874;27;46664;-65
2023/12/31 00:36:25;;;;;;;2.10;1.70;;;16.70;48.00;;;;;;5168628;27;45570;-66
2023/12/31 00:38:53;;;;;;;1.67;1.45;;;16.70;48.00;;;;;;5169117;27;45384;-66
2023/12/31 00:41:20;;;;;;;1.70;1.60;;;16.60;47.90;;;;;;5168978;27;45396;-65
2023/12/31 00:43:47;;;;;;;3.63;2.08;;;16.60;48.00;;;;;;5166281;27;45581;-65
2023/12/31 00:46:14;;;;;;;2.38;1.52;;;16.60;48.00;;;;;;5169061;27;45478;-65
2023/12/31 00:48:41;;;;;;;1.83;1.38;;;16.60;48.00;;;;;;5168934;27;45371;-66
2023/12/31 00:51:08;;;;;;;1.83;1.52;;;16.50;47.90;;;;;;5169127;27;45436;-66
2023/12/31 00:53:35;;;;;;;1.50;1.40;;;16.60;48.00;;;;;;5168454;27;45443;-65
2023/12/31 00:56:04;;;;;;;2.22;1.23;;;16.50;48.00;;;;;;5168328;27;45308;-67
2023/12/31 00:58:31;;;;;;;1.38;1.27;;;16.50;48.00;;;;;;5168511;27;45386;-65
2023/12/31 01:00:57;;;;;;;2.67;1.83;;;16.50;48.00;;;;;;5168959;27;45382;-65
2023/12/31 01:03:24;;;;;;;1.42;1.33;;;16.50;48.10;;;;;;5168654;27;47460;-65
2023/12/31 01:05:51;;;;;;;1.70;1.40;;;16.50;48.10;;;;;;5168332;27;45270;-65
2023/12/31 01:08:18;;;;;;;1.60;1.50;;;16.50;48.10;;;;;;5168549;27;45343;-65
2023/12/31 01:10:45;;;;;;;1.98;1.50;;;16.50;48.10;;;;;;5168515;27;45513;-65
2023/12/31 01:13:13;;;;;;;2.30;1.33;;;16.50;48.10;;;;;;5158821;27;45376;-65
2023/12/31 01:15:40;;;;;;;1.92;1.50;;;16.40;48.10;;;;;;5147430;27;45422;-65
2023/12/31 01:18:07;;;;;;;1.92;1.35;;;16.40;48.10;;;;;;5147406;27;45297;-66
2023/12/31 01:20:33;;;;;;;1.80;1.50;;;16.40;48.10;;;;;;5147438;27;45319;-66
2023/12/31 01:23:00;;;;;;;1.73;1.60;;;16.40;48.20;;;;;;5147303;27;45592;-65
2023/12/31 01:25:27;;;;;;;1.40;1.30;;;16.40;48.20;;;;;;5147215;27;45511;-66
2023/12/31 01:27:55;;;;;;;1.83;1.45;;;16.40;48.20;;;;;;5147438;27;45322;-65
2023/12/31 01:30:23;;;;;;;1.50;1.30;;;16.40;48.20;;;;;;5147547;27;45300;-67
2023/12/31 01:32:50;;;;;;;1.23;1.10;;;16.40;48.20;;;;;;5150426;27;46370;-65
2023/12/31 01:35:18;;;;;;;2.13;1.38;;;16.30;48.10;;;;;;5150719;27;45422;-66
2023/12/31 01:37:45;;;;;;;1.45;1.20;;;16.30;48.10;;;;;;5150788;27;45225;-65
2023/12/31 01:40:12;;;;;;;1.45;1.23;;;16.30;48.20;;;;;;5141409;27;45248;-65
2023/12/31 01:42:39;;;;;;;1.13;1.02;;;16.30;48.20;;;;;;5129661;27;47181;-65
2023/12/31 01:45:07;;;;;;;1.33;1.23;;;16.30;48.20;;;;;;5129949;27;45384;-66
2023/12/31 01:47:35;;;;;;;1.58;1.40;;;16.30;48.20;;;;;;5129802;27;45286;-65
2023/12/31 01:50:03;;;;;;;1.40;1.30;;;16.30;48.20;;;;;;5130241;27;45182;-66
2023/12/31 01:52:30;;;;;;;1.95;1.30;;;16.30;48.30;;;;;;5129671;27;45525;-65
2023/12/31 01:54:57;;;;;;;1.23;1.13;;;16.20;48.20;;;;;;5129546;27;45484;-64
2023/12/31 01:57:25;;;;;;;1.30;1.20;;;16.20;48.30;;;;;;5129584;27;45261;-65
2023/12/31 01:59:52;;;;;;;2.00;1.30;;;16.20;48.30;;;;;;5129923;27;45313;-65
2023/12/31 02:02:19;;;;;;;1.23;1.00;;;16.20;48.30;;;;;;5129548;27;45301;-66
2023/12/31 02:04:47;;;;;;;1.77;1.17;;;16.20;48.30;;;;;;5129540;27;45331;-66
2023/12/31 02:07:14;;;;;;;1.30;1.20;;;16.20;48.30;;;;;;5129855;27;45390;-65
2023/12/31 02:09:41;;;;;;;1.23;1.10;;;16.20;48.30;;;;;;5129650;27;45299;-65
2023/12/31 02:12:08;;;;;;;1.40;1.30;;;16.10;48.40;;;;;;5129375;27;45592;-66
2023/12/31 02:14:35;;;;;;;1.27;1.10;;;16.10;48.30;;;;;;5129466;27;45303;-65
2023/12/31 02:17:02;;;;;;;1.30;1.20;;;16.10;48.40;;;;;;5129381;27;45446;-66
2023/12/31 02:19:29;;;;;;;1.52;1.20;;;16.10;48.40;;;;;;5129653;27;45396;-65
2023/12/31 02:21:58;;;;;;;1.45;1.10;;;16.10;48.40;;;;;;5130454;27;45343;-65
2023/12/31 02:24:29;;;;;;;1.27;1.10;;;16.10;48.40;;;;;;5149925;27;45341;-65
2023/12/31 02:26:57;;;;;;;1.30;1.20;;;16.10;48.40;;;;;;5149821;27;45338;-65
2023/12/31 02:29:24;;;;;;;1.63;1.52;;;16.10;48.40;;;;;;5150232;27;45414;-65
2023/12/31 02:31:50;;;;;;;1.10;1.00;;;16.10;48.50;;;;;;5149668;27;45317;-65
2023/12/31 02:34:17;;;;;;;1.25;1.20;;;16.00;48.40;;;;;;5150029;27;45303;-65
2023/12/31 02:36:44;;;;;;;1.40;1.30;;;16.00;48.50;;;;;;5149761;27;45306;-65
2023/12/31 02:39:11;;;;;;;1.40;1.30;;;16.00;48.50;;;;;;5150554;27;45419;-65
2023/12/31 02:41:38;;;;;;;1.00;1.00;;;16.00;48.60;;;;;;5170617;27;46404;-65
2023/12/31 02:44:06;;;;;;;1.55;1.40;;;16.00;48.60;;;;;;5170072;27;45439;-66
2023/12/31 02:46:33;;;;;;;1.50;1.15;;;16.00;48.60;;;;;;5170732;27;45405;-67
2023/12/31 02:49:00;;;;;;;1.30;1.20;;;16.00;48.60;;;;;;5171045;27;45323;-64
2023/12/31 02:51:27;;;;;;;1.67;1.33;;;15.90;48.50;;;;;;5170591;27;45212;-63
2023/12/31 02:53:53;;;;;;;1.80;1.70;;;15.90;48.60;;;;;;5170413;27;45379;-63
2023/12/31 02:56:21;;;;;;;1.15;1.15;;;15.90;48.60;;;;;;5170404;27;45422;-64
2023/12/31 02:58:48;;;;;;;1.40;1.30;;;15.90;48.60;;;;;;5171067;27;45524;-65
2023/12/31 03:01:16;;;;;;;1.30;1.20;;;15.90;48.60;;;;;;5170390;27;46833;-64
2023/12/31 03:03:43;;;;;;;1.65;0.98;;;15.90;48.60;;;;;;5170478;27;45190;-64
2023/12/31 03:06:11;;;;;;;1.25;1.15;;;15.90;48.60;;;;;;5170129;27;45275;-64
2023/12/31 03:08:38;;;;;;;1.20;1.10;;;15.90;48.60;;;;;;5170574;27;45401;-64
2023/12/31 03:11:05;;;;;;;1.23;1.10;;;15.80;48.60;;;;;;5170170;27;46391;-63
2023/12/31 03:13:32;;;;;;;1.77;1.30;;;15.80;48.70;;;;;;5169686;27;45309;-64
2023/12/31 03:16:04;;;;;;;2.13;1.30;;;15.80;48.60;;;;;;5170326;27;45123;-64
2023/12/31 03:18:33;;;;;;;2.05;1.58;;;15.80;48.60;;;;;;5170693;27;45308;-64
2023/12/31 03:20:59;;;;;;;1.40;1.30;;;15.80;48.60;;;;;;5170039;27;46646;-64
2023/12/31 03:23:26;;;;;;;1.60;1.50;;;15.80;48.60;;;;;;5155400;27;45286;-64
2023/12/31 03:25:54;;;;;;;1.52;1.42;;;15.80;48.60;;;;;;5149220;27;45346;-64
2023/12/31 03:28:21;;;;;;;1.73;1.50;;;15.80;48.70;;;;;;5149652;27;45381;-64
2023/12/31 03:30:47;;;;;;;1.33;1.23;;;15.80;48.70;;;;;;5148844;27;46648;-65
2023/12/31 03:33:14;;;;;;;2.03;1.60;;;15.80;48.70;;;;;;5148827;27;45287;-64
2023/12/31 03:35:43;;;;;;;2.03;1.70;;;15.80;48.70;;;;;;5148956;27;45416;-65
2023/12/31 03:38:09;;;;;;;1.85;1.75;;;15.70;48.60;;;;;;5149516;27;45287;-64
2023/12/31 03:40:36;;;;;;;1.90;1.67;;;15.70;48.60;;;;;;5148361;27;46376;-65
2023/12/31 03:43:03;;;;;;;1.70;1.60;;;15.70;48.70;;;;;;5149301;27;45214;-64
2023/12/31 03:45:30;;;;;;;2.55;1.83;;;15.70;48.70;;;;;;5148774;27;45382;-64
2023/12/31 03:47:57;;;;;;;2.25;2.05;;;15.70;48.80;;;;;;5149185;27;45305;-64
2023/12/31 03:50:23;;;;;;;1.67;1.58;;;15.70;48.80;;;;;;5147071;27;46420;-63
2023/12/31 03:52:52;;;;;;;1.55;1.45;;;15.60;48.80;;;;;;5148531;27;45311;-63
2023/12/31 03:55:18;;;;;;;1.60;1.50;;;15.60;48.80;;;;;;5145661;27;45319;-64
2023/12/31 03:57:45;;;;;;;2.53;1.80;;;15.60;48.80;;;;;;5149709;27;45256;-64
2023/12/31 04:00:13;;;;;;;2.15;1.95;;;15.60;48.80;;;;;;5149668;27;46666;-64
2023/12/31 04:02:39;;;;;;;2.30;2.10;;;15.60;48.80;;;;;;5150314;27;45381;-65
2023/12/31 04:05:07;;;;;;;2.60;2.40;;;15.60;48.80;;;;;;5149901;27;45258;-64
2023/12/31 04:07:34;;;;;;;2.47;2.28;;;15.60;48.90;;;;;;5149593;27;45392;-64
2023/12/31 04:10:02;;;;;;;3.05;2.67;;;15.60;48.90;;;;;;5148738;27;46592;-63
2023/12/31 04:12:29;;;;;;;3.00;2.70;;;15.60;48.90;;;;;;5153299;27;45447;-64
2023/12/31 04:14:56;;;;;;;2.30;2.08;;;15.70;48.80;;;;;;5169688;27;45293;-63
2023/12/31 04:17:23;;;;;;;2.15;1.92;;;15.70;48.60;;;;;;5169818;27;45250;-64
2023/12/31 04:19:50;;;;;;;2.65;2.13;;;15.80;48.60;;;;;;5170822;27;45296;-64
2023/12/31 04:22:17;;;;;;;2.67;2.17;;;15.90;48.40;;;;;;5165552;27;45536;-64
2023/12/31 04:24:44;;;;;;;3.55;1.98;;;15.90;48.20;;;;;;5148725;27;45491;-64
2023/12/31 04:27:12;;;;;;;2.65;2.45;;;16.10;48.00;;;;;;5148740;27;45398;-64
2023/12/31 04:29:39;;;;;;;2.65;2.22;;;16.10;47.70;;;;;;5149728;27;46744;-64
2023/12/31 04:32:06;;;;;;;1.92;1.83;;;16.30;47.50;;;;;;5148639;27;45254;-64
2023/12/31 04:34:33;;;;;;;2.50;2.00;;;16.40;47.30;;;;;;5147870;27;45327;-63
2023/12/31 04:37:00;;;;;;;2.72;2.20;;;16.50;47.10;;;;;;5149071;27;45246;-64
2023/12/31 04:39:26;;;;;;;2.33;1.65;;;16.60;46.90;;;;;;5145830;27;46602;-63
2023/12/31 04:41:54;;;;;;;2.70;2.25;;;16.70;46.70;;;;;;5128050;27;45331;-64
2023/12/31 04:44:22;;;;;;;2.10;1.88;;;16.80;47.00;;;;;;5127698;27;45380;-64
2023/12/31 04:46:49;;;;;;;3.60;2.00;;;16.90;46.20;;;;;;5127560;27;45455;-64
2023/12/31 04:49:16;;;;;;;1.98;1.77;;;17.00;46.00;;;;;;5127227;27;46248;-64
2023/12/31 04:51:43;;;;;;;2.95;1.98;;;17.10;45.80;;;;;;5127451;27;45258;-64
2023/12/31 04:54:10;;;;;;;2.35;1.98;;;17.20;45.70;;;;;;5127306;27;45326;-63
2023/12/31 04:56:37;;;;;;;2.40;2.13;;;17.30;45.60;;;;;;5127540;27;45438;-63
2023/12/31 04:59:04;;;;;;;1.85;1.65;;;17.30;45.40;;;;;;5127500;27;45513;-64
2023/12/31 05:01:33;;;;;;;3.15;1.80;;;17.40;45.20;;;;;;5127663;27;45324;-63
2023/12/31 05:04:00;;;;;;;2.35;1.80;;;17.50;45.10;;;;;;5127411;27;45319;-65
2023/12/31 05:06:27;;;;;;;2.15;1.95;;;17.50;45.00;;;;;;5128751;27;45457;-63
2023/12/31 05:08:53;;;;;;;2.17;1.92;;;17.60;44.90;;;;;;5130555;27;46657;-63
2023/12/31 05:11:20;;;;;;;3.50;1.85;;;17.70;44.80;;;;;;5130844;27;45235;-64
2023/12/31 05:13:47;;;;;;;2.40;1.98;;;17.70;44.70;;;;;;5130855;27;45266;-65
2023/12/31 05:16:14;;;;;;;2.30;1.90;;;17.80;44.60;;;;;;5130788;27;45303;-63
2023/12/31 05:18:43;;;;;;;2.13;1.77;;;17.80;44.50;;;;;;5129780;27;45311;-64
2023/12/31 05:21:10;;;;;;;2.28;1.77;;;17.90;44.40;;;;;;5130298;27;45387;-66
2023/12/31 05:23:37;;;;;;;1.60;1.50;;;17.90;44.30;;;;;;5146605;27;45298;-66
2023/12/31 05:26:04;;;;;;;3.00;2.08;;;17.90;44.30;;;;;;5151733;27;45319;-65
2023/12/31 05:28:31;;;;;;;3.33;2.13;;;18.00;44.30;;;;;;5151616;27;46288;-66
2023/12/31 05:30:58;;;;;;;2.50;1.88;;;18.00;44.20;;;;;;5139900;27;45349;-64
2023/12/31 05:33:25;;;;;;;2.10;1.90;;;18.00;44.10;;;;;;5151361;27;45312;-64
2023/12/31 05:35:53;;;;;;;2.17;1.98;;;18.10;44.10;;;;;;5151416;27;45420;-64
2023/12/31 05:38:20;;;;;;;2.40;1.85;;;18.10;44.10;;;;;;5151131;27;45318;-64
2023/12/31 05:40:47;;;;;;;1.92;1.80;;;18.10;44.00;;;;;;5165211;27;45337;-64
2023/12/31 05:43:13;;;;;;;2.13;1.92;;;18.20;44.00;;;;;;5172161;27;45335;-64
2023/12/31 05:45:40;;;;;;;1.98;1.77;;;18.20;44.00;;;;;;5172344;27;45641;-64
2023/12/31 05:48:07;;;;;;;2.20;1.80;;;18.20;43.90;;;;;;5171747;27;45260;-64
2023/12/31 05:50:34;;;;;;;2.05;1.85;;;18.20;43.90;;;;;;5172042;27;45332;-65
2023/12/31 05:53:02;;;;;;;1.83;1.58;;;18.20;44.00;;;;;;5172160;27;45178;-64
2023/12/31 05:55:29;;;;;;;3.65;1.92;;;18.20;43.90;;;;;;5172644;27;45407;-64
2023/12/31 05:57:56;;;;;;;1.63;1.45;;;18.20;43.90;;;;;;5171297;27;45442;-64
2023/12/31 06:00:23;;;;;;;2.53;1.90;;;18.20;44.00;;;;;;5171443;27;45317;-64
2023/12/31 06:02:50;;;;;;;2.20;1.80;;;18.20;44.00;;;;;;5171599;27;45304;-67
2023/12/31 06:05:18;;;;;;;2.65;1.80;;;18.20;43.90;;;;;;5171909;27;45459;-65
2023/12/31 06:07:45;;;;;;;1.67;1.50;;;18.20;43.90;;;;;;5171722;27;45397;-64
2023/12/31 06:10:13;;;;;;;2.15;1.95;;;18.20;43.90;;;;;;5171544;27;45272;-65
2023/12/31 06:12:40;;;;;;;2.45;1.77;;;18.20;43.90;;;;;;5171379;27;45112;-65
2023/12/31 06:15:09;;;;;;;1.90;1.60;;;18.20;43.90;;;;;;5171658;27;45465;-65
2023/12/31 06:17:35;;;;;;;2.53;1.88;;;18.30;43.90;;;;;;5170813;27;45380;-65
2023/12/31 06:20:02;;;;;;;1.67;1.58;;;18.20;43.90;;;;;;5171468;27;45331;-65
2023/12/31 06:22:29;;;;;;;2.15;1.58;;;18.30;44.00;;;;;;5165298;27;45259;-64
2023/12/31 06:24:56;;;;;;;2.58;1.88;;;18.30;43.90;;;;;;5150733;27;45224;-64
2023/12/31 06:27:24;;;;;;;2.28;1.70;;;18.30;43.90;;;;;;5150433;27;46144;-64
2023/12/31 06:29:51;;;;;;;3.83;1.50;;;18.30;43.90;;;;;;5149931;27;45393;-64
2023/12/31 06:32:18;;;;;;;1.60;1.50;;;18.30;43.90;;;;;;5147733;27;45259;-64
2023/12/31 06:34:45;;;;;;;2.03;1.83;;;18.30;43.90;;;;;;5147949;27;45214;-64
2023/12/31 06:37:12;;;;;;;1.58;1.42;;;18.30;43.90;;;;;;5150344;27;46393;-64
2023/12/31 06:39:39;;;;;;;2.03;1.40;;;18.30;43.80;;;;;;5145570;27;45515;-65
2023/12/31 06:42:06;;;;;;;2.58;1.60;;;18.30;43.80;;;;;;5129299;27;45379;-65
2023/12/31 06:44:34;;;;;;;2.13;1.90;;;18.30;43.80;;;;;;5129119;27;45315;-64
2023/12/31 06:47:01;;;;;;;2.00;1.50;;;18.30;43.70;;;;;;5128572;27;46439;-64
2023/12/31 06:49:28;;;;;;;2.45;1.67;;;18.30;43.80;;;;;;5129166;27;45316;-64
2023/12/31 06:51:55;;;;;;;2.03;1.67;;;18.30;43.70;;;;;;5129157;27;45408;-64
2023/12/31 06:54:21;;;;;;;1.52;1.42;;;18.30;44.30;;;;;;5129464;27;45501;-64
2023/12/31 06:56:48;;;;;;;2.08;1.88;;;18.40;43.70;;;;;;5128798;27;46373;-64
2023/12/31 06:59:15;;;;;;;1.98;1.77;;;18.30;43.60;;;;;;5128981;27;45311;-64
2023/12/31 07:01:43;;;;;;;1.75;1.42;;;18.30;43.60;;;;;;5126354;27;45334;-65
2023/12/31 07:04:10;;;;;;;2.72;1.60;;;18.40;43.70;;;;;;5129176;27;45339;-65
2023/12/31 07:06:36;;;;;;;2.38;1.42;;;18.40;43.70;;;;;;5128317;27;46698;-64
2023/12/31 07:09:03;;;;;;;2.42;1.70;;;18.40;43.70;;;;;;5128789;27;45314;-64
2023/12/31 07:11:30;;;;;;;2.15;1.50;;;18.40;43.60;;;;;;5128708;27;45326;-64
2023/12/31 07:13:56;;;;;;;1.67;1.30;;;18.40;44.30;;;;;;5128981;27;45248;-64
2023/12/31 07:16:23;;;;;;;1.52;1.42;;;18.40;43.60;;;;;;5128468;27;45436;-64
2023/12/31 07:18:51;;;;;;;1.88;1.70;;;18.40;43.50;;;;;;5128991;27;45378;-65
2023/12/31 07:21:22;;;;;;;2.22;1.80;;;18.40;43.50;;;;;;5128644;27;45304;-64
2023/12/31 07:23:49;;;;;;;1.67;1.50;;;18.40;43.50;;;;;;5139675;27;45431;-64
2023/12/31 07:26:24;;;;;;;2.33;2.03;;;18.40;43.50;;;;;;5149211;27;46717;-64
2023/12/31 07:28:51;;;;;;;1.98;1.58;;;18.50;43.50;;;;;;5146553;27;45446;-65
2023/12/31 07:31:18;;;;;;;1.50;1.40;;;18.50;43.50;;;;;;5148902;27;45283;-64
2023/12/31 07:33:45;;;;;;;1.60;1.50;;;18.50;43.50;;;;;;5149363;27;45194;-66
2023/12/31 07:36:14;;;;;;;1.55;1.30;;;18.50;43.40;;;;;;5148856;27;46407;-65
2023/12/31 07:38:41;;;;;;;2.25;1.73;;;18.50;43.40;;;;;;5149293;27;45448;-66
2023/12/31 07:41:11;;;;;;;1.58;1.40;;;18.50;43.40;;;;;;5166685;27;45286;-65
2023/12/31 07:43:38;;;;;;;1.52;1.42;;;18.50;43.40;;;;;;5167748;27;45403;-65
2023/12/31 07:46:06;;;;;;;1.80;1.42;;;18.60;43.40;;;;;;5169877;27;45460;-65
2023/12/31 07:48:33;;;;;;;1.77;1.67;;;18.60;43.30;;;;;;5170309;27;45322;-65
2023/12/31 07:51:03;;;;;;;2.00;1.77;;;18.60;43.30;;;;;;5170071;27;45298;-66
2023/12/31 07:53:31;;;;;;;2.72;1.50;;;18.60;43.30;;;;;;5170189;27;45365;-64
2023/12/31 07:55:58;;;;;;;1.60;1.50;;;18.60;43.30;;;;;;5169589;27;46286;-65
2023/12/31 07:58:27;;;;;;;2.22;1.80;;;18.60;43.20;;;;;;5169718;27;45275;-64
2023/12/31 08:00:54;;;;;;;1.90;1.70;;;18.60;43.20;;;;;;5170112;27;45237;-64
2023/12/31 08:03:21;;;;;;;2.35;1.75;;;18.60;43.20;;;;;;5170103;27;45580;-64
2023/12/31 08:05:48;;;;;;;2.13;1.67;;;18.70;43.20;;;;;;5169287;27;46144;-64
2023/12/31 08:08:15;;;;;;;2.42;1.80;;;18.60;43.20;;;;;;5169495;27;45279;-64
2023/12/31 08:10:44;;;;;;;1.60;1.50;;;18.70;43.20;;;;;;5169758;27;45265;-64
2023/12/31 08:13:11;;;;;;;2.08;1.80;;;18.70;43.20;;;;;;5169816;27;45334;-64
2023/12/31 08:15:38;;;;;;;2.00;1.55;;;18.70;43.10;;;;;;5168987;27;45664;-64
2023/12/31 08:18:05;;;;;;;1.67;1.40;;;18.70;43.10;;;;;;5169141;27;45235;-64
2023/12/31 08:20:33;;;;;;;1.42;1.33;;;18.70;43.70;;;;;;5169730;27;45195;-64
2023/12/31 08:23:00;;;;;;;1.90;1.38;;;18.70;43.10;;;;;;5170215;27;45498;-65
2023/12/31 08:25:27;;;;;;;1.73;1.60;;;18.80;43.10;;;;;;5169510;27;46738;-65
2023/12/31 08:27:55;;;;;;;1.60;1.38;;;18.70;43.00;;;;;;5170094;27;45198;-65
2023/12/31 08:30:22;;;;;;;2.28;1.58;;;18.80;43.10;;;;;;5169485;27;45349;-65
2023/12/31 08:32:49;;;;;;;1.42;1.33;;;18.80;43.10;;;;;;5169837;27;45266;-65
2023/12/31 08:35:19;;;;;;;2.38;1.38;;;18.80;43.10;;;;;;5169064;27;45499;-66
2023/12/31 08:37:47;;;;;;;1.50;1.40;;;18.80;43.70;;;;;;5169167;27;45308;-65
2023/12/31 08:40:14;;;;;;;1.30;1.20;;;18.80;43.10;;;;;;5168831;27;45416;-65
2023/12/31 08:42:41;;;;;;;1.38;1.27;;;18.80;43.10;;;;;;5169441;27;45362;-65
2023/12/31 08:45:10;;;;;;;1.45;1.33;;;18.80;43.00;;;;;;5169143;27;45415;-65
2023/12/31 08:47:38;;;;;;;1.42;1.33;;;18.90;43.10;;;;;;5169475;27;45283;-65
2023/12/31 08:50:09;;;;;;;1.50;1.40;;;18.90;43.10;;;;;;5169506;27;45335;-67
2023/12/31 08:52:37;;;;;;;1.50;1.30;;;18.90;43.10;;;;;;5169537;27;45261;-65
2023/12/31 08:55:06;;;;;;;1.55;1.45;;;18.90;43.10;;;;;;5169144;27;46645;-66
2023/12/31 08:57:32;;;;;;;2.05;1.40;;;18.90;43.00;;;;;;5168994;27;45374;-65
2023/12/31 08:59:59;;;;;;;2.08;1.50;;;18.90;43.00;;;;;;5168912;27;45345;-65
2023/12/31 09:02:27;;;;;;;2.38;1.55;;;18.90;43.00;;;;;;5168770;27;45453;-64
2023/12/31 09:04:54;;;;;;;2.95;1.80;;;18.90;43.00;;;;;;5168341;27;45301;-67
2023/12/31 09:07:21;;;;;;;4.40;1.58;;;19.00;43.10;;;;;;5168882;27;45399;-65
2023/12/31 09:09:48;;;;;;;1.48;1.38;;;19.00;43.10;;;;;;5169123;27;45242;-65
2023/12/31 09:12:15;;;;;;;3.28;1.70;;;18.90;43.10;;;;;;5168092;27;45350;-65
2023/12/31 09:14:41;;;;;;;2.65;1.38;;;18.90;43.00;;;;;;5147614;27;45257;-66
2023/12/31 09:17:08;;;;;;;3.05;1.27;;;19.00;43.10;;;;;;5147637;27;45273;-65
2023/12/31 09:19:36;;;;;;;3.63;1.30;;;19.00;43.10;;;;;;5147846;27;45311;-65
2023/12/31 09:22:03;;;;;;;3.00;1.25;;;19.00;43.20;;;;;;5150469;27;45248;-65
2023/12/31 09:24:31;;;;;;;1.77;1.42;;;19.00;43.20;;;;;;5168325;27;46780;-65
2023/12/31 09:26:57;;;;;;;3.33;1.77;;;19.00;43.10;;;;;;5168598;27;45270;-65
2023/12/31 09:29:24;;;;;;;2.75;1.45;;;19.00;43.20;;;;;;5168963;27;45369;-65
2023/12/31 09:31:51;;;;;;;4.70;1.63;;;19.00;43.10;;;;;;5157752;27;45487;-67
2023/12/31 09:34:18;;;;;;;2.80;1.38;;;19.00;43.10;;;;;;5156114;27;47320;-65
2023/12/31 09:36:46;;;;;;;3.17;1.50;;;19.00;43.30;;;;;;5149554;27;45294;-65
2023/12/31 09:39:13;;;;;;;2.03;1.52;;;19.10;43.40;;;;;;5151739;27;45609;-66
2023/12/31 09:41:40;;;;;;;2.42;1.63;;;19.10;43.30;;;;;;5153300;27;45491;-65
2023/12/31 09:44:07;;;;;;;3.88;1.65;;;19.10;43.30;;;;;;5149937;27;46371;-66
2023/12/31 09:46:36;;;;;;;5.20;1.95;;;19.20;43.50;;;;;;5151139;27;45425;-66
2023/12/31 09:49:03;;;;;;;5.65;2.00;;;19.20;43.40;;;;;;5159035;27;45255;-64
2023/12/31 09:51:30;;;;;;;1.70;1.60;;;19.20;43.50;;;;;;5158631;27;45556;-65
2023/12/31 09:53:58;;;;;;;3.03;1.60;;;19.20;43.30;;;;;;5160699;27;46328;-64
2023/12/31 09:56:25;;;;;;;2.88;1.52;;;19.20;43.40;;;;;;5162678;27;45467;-64
2023/12/31 09:58:52;;;;;;;2.00;1.45;;;19.20;43.30;;;;;;5161599;27;45156;-64
2023/12/31 10:01:19;;;;;;;5.03;1.77;;;19.20;43.40;;;;;;5154342;27;44844;-64
2023/12/31 10:03:46;;;;;;;4.57;1.60;;;19.20;43.50;;;;;;5167623;27;45430;-65
2023/12/31 10:06:13;;;;;;;3.38;1.48;;;19.30;43.40;;;;;;5153085;27;45448;-65
2023/12/31 10:08:39;;;;;;;2.17;1.50;;;19.20;43.40;;;;;;5155457;27;45393;-65
2023/12/31 10:11:08;;;;;;;4.05;1.70;;;19.20;43.30;;;;;;5155881;27;45329;-64
2023/12/31 10:13:34;;;;;;;1.75;1.50;;;19.20;43.40;;;;;;5163023;27;46399;-64
2023/12/31 10:16:14;;;;;;;2.78;1.48;;;19.20;43.40;;;;;;5171184;27;45754;-64
2023/12/31 10:18:41;;;;;;;6.85;1.80;;;19.30;43.50;;;;;;5157228;27;45285;-64
2023/12/31 10:21:09;;;;;;;3.67;1.48;;;19.20;43.10;;;;;;5159138;27;45578;-65
2023/12/31 10:23:36;;;;;;;3.83;1.67;;;19.30;43.40;;;;;;5155574;27;47082;-64
2023/12/31 10:26:03;;;;;;;3.75;1.58;;;19.30;43.40;;;;;;5164031;27;45388;-68
2023/12/31 10:28:31;;;;;;;3.80;1.67;;;19.30;43.40;;;;;;5158952;27;45319;-64
2023/12/31 10:30:58;;;;;;;2.65;1.60;;;19.30;43.50;;;;;;5164187;27;45446;-66
2023/12/31 10:33:28;;;;;;;2.63;1.67;;;19.30;43.60;;;;;;5156956;27;45605;-66
2023/12/31 10:36:04;;;;;;;2.42;1.35;;;19.30;43.70;;;;;;5161518;27;45266;-66
2023/12/31 10:38:41;;;;;;;3.05;1.50;;;19.30;43.70;;;;;;5159386;27;45324;-64
2023/12/31 10:41:09;;;;;;;2.95;1.58;;;19.30;43.70;;;;;;5164514;27;45325;-65
2023/12/31 10:43:37;;;;;;;5.38;1.40;;;19.30;43.90;;;;;;5161694;27;46688;-64
2023/12/31 10:46:04;;;;;;;2.90;1.40;;;19.30;43.90;;;;;;5162199;27;45357;-67
2023/12/31 10:48:31;;;;;;;2.10;1.30;;;19.30;43.90;;;;;;5164236;27;45278;-65
2023/12/31 10:50:58;;;;;;;1.50;1.30;;;19.40;44.00;;;;;;5164550;27;45447;-65
2023/12/31 10:53:25;;;;;;;5.00;1.52;;;19.40;44.00;;;;;;5167177;27;46560;-65
2023/12/31 10:55:52;;;;;;;4.05;1.27;;;19.40;44.10;;;;;;5163989;27;45552;-65
2023/12/31 10:58:19;;;;;;;2.15;1.35;;;19.40;44.20;;;;;;5164465;27;45286;-64
2023/12/31 11:00:47;;;;;;;5.72;1.50;;;19.40;44.10;;;;;;5161972;27;45307;-65
2023/12/31 11:03:14;;;;;;;5.78;1.70;;;19.40;44.00;;;;;;5161201;27;45381;-66
2023/12/31 11:05:41;;;;;;;3.67;1.35;;;19.50;44.00;;;;;;5163742;27;45329;-65
2023/12/31 11:08:09;;;;;;;2.45;1.13;;;19.50;44.00;;;;;;5161424;27;45406;-65
2023/12/31 11:10:36;;;;;;;3.97;1.38;;;19.50;44.60;;;;;;5156934;27;45408;-65
2023/12/31 11:13:02;;;;;;;2.28;1.20;;;19.50;44.00;;;;;;5157568;27;45259;-66
2023/12/31 11:15:29;;;;;;;1.30;1.20;;;19.50;44.00;;;;;;5156031;27;45173;-65
2023/12/31 11:18:06;;;;;;;2.70;1.25;;;19.50;43.90;;;;;;5158223;27;45384;-66
2023/12/31 11:20:45;;;;;;;6.35;1.33;;;19.60;43.90;;;;;;5155847;27;45593;-65
2023/12/31 11:23:17;;;;;;;1.55;1.38;;;19.60;44.00;;;;;;5157297;27;45467;-67
2023/12/31 11:25:45;;;;;;;4.60;1.30;;;19.60;44.10;;;;;;5155032;27;45455;-65
2023/12/31 11:28:12;;;;;;;1.27;1.17;;;19.60;44.10;;;;;;5159070;27;45407;-66
2023/12/31 11:30:46;;;;;;;2.58;1.40;;;19.60;44.10;;;;;;5149347;27;45264;-65
2023/12/31 11:33:16;;;;;;;5.10;1.23;;;19.50;44.00;;;;;;5149002;27;46302;-66
2023/12/31 11:35:43;;;;;;;2.13;1.20;;;19.50;44.00;;;;;;5148858;27;45314;-66
2023/12/31 11:38:10;;;;;;;4.15;1.30;;;19.50;44.00;;;;;;5149095;27;45506;-66
2023/12/31 11:40:37;;;;;;;3.58;1.15;;;19.50;44.00;;;;;;5148753;27;45266;-65
2023/12/31 11:43:11;;;;;;;2.35;1.30;;;19.50;44.00;;;;;;5148945;27;45160;-64
2023/12/31 11:45:45;;;;;;;3.92;1.00;;;19.50;44.00;;;;;;5148644;27;45270;-66
2023/12/31 11:48:28;;;;;;;1.42;1.13;;;19.60;44.00;;;;;;5148921;27;45270;-65
2023/12/31 11:50:57;;;;;;;2.22;1.20;;;19.50;43.90;;;;;;5148879;27;45642;-65
2023/12/31 11:53:26;;;;;;;1.30;1.15;;;19.50;43.90;;;;;;5148675;27;45447;-65
2023/12/31 11:55:54;;;;;;;2.13;1.13;;;19.60;43.90;;;;;;5148486;27;45382;-65
2023/12/31 11:58:21;;;;;;;1.25;1.00;;;19.60;43.90;;;;;;5148737;27;45411;-65
2023/12/31 12:00:49;;;;;;;2.55;1.17;;;19.60;43.90;;;;;;5148809;27;45219;-65
2023/12/31 12:03:17;;;;;;;1.05;0.90;;;19.50;43.80;;;;;;5148614;27;45544;-65
2023/12/31 12:05:46;;;;;;;1.02;0.85;;;19.60;43.90;;;;;;5148215;27;45394;-65
2023/12/31 12:08:13;;;;;;;1.17;0.90;;;19.60;43.90;;;;;;5148489;27;45264;-65
2023/12/31 12:10:41;;;;;;;1.13;1.00;;;19.50;43.80;;;;;;5148639;27;45242;-65
2023/12/31 12:13:08;;;;;;;0.85;0.85;;;19.50;43.70;;;;;;5157346;27;47675;-66
2023/12/31 12:15:35;;;;;;;1.15;1.00;;;19.50;43.70;;;;;;5168051;27;45413;-65
2023/12/31 12:18:03;;;;;;;1.17;1.10;;;19.50;43.70;;;;;;5169274;27;45350;-65
2023/12/31 12:20:30;;;;;;;1.30;1.20;;;19.60;43.80;;;;;;5169389;27;45260;-65
2023/12/31 12:22:58;;;;;;;1.30;0.88;;;19.50;43.70;;;;;;5158722;27;45567;-65
2023/12/31 12:25:25;;;;;;;1.10;0.80;;;19.60;43.80;;;;;;5147910;27;45347;-66
2023/12/31 12:27:52;;;;;;;1.17;1.08;;;19.60;43.80;;;;;;5148461;27;45320;-65
2023/12/31 12:30:19;;;;;;;0.73;0.73;;;19.50;43.70;;;;;;5148324;27;45518;-65
2023/12/31 12:32:47;;;;;;;2.33;1.00;;;19.60;43.70;;;;;;5147969;27;46811;-66
2023/12/31 12:35:14;;;;;;;0.80;0.80;;;19.60;43.70;;;;;;5147916;27;45501;-65
2023/12/31 12:37:42;;;;;;;1.20;1.10;;;19.60;43.70;;;;;;5148105;27;45311;-66
2023/12/31 12:40:16;;;;;;;1.60;0.80;;;19.50;43.70;;;;;;5139116;27;45215;-65
2023/12/31 12:42:45;;;;;;;0.70;0.70;;;19.60;43.70;;;;;;5126393;27;45486;-66
2023/12/31 12:45:12;;;;;;;2.88;0.98;;;19.50;43.70;;;;;;5126898;27;45470;-66
2023/12/31 12:47:39;;;;;;;1.35;0.95;;;19.50;43.70;;;;;;5126981;27;45388;-66
2023/12/31 12:50:06;;;;;;;2.42;1.00;;;19.50;43.80;;;;;;5127347;27;45352;-65